Time;durP1;ratioP1;P1;durP2;ratioP2;P2;SDS_P1;SDS_P2;PMS_P1;PMS_P2;Temp;Humidity;BMP_temperature;BMP_pressure;BME280_temperature;BME280_humidity;BME280_pressure;Samples;Min_cycle;Max_cycle;Signal;HPM_P1;HPM_P2
2023/05/31 00:00:23;;;;;;;11.50;5.43;;;;;;;15.26;100.00;99724.91;5027292;28;20659;-76
2023/05/31 00:02:51;;;;;;;9.60;5.33;;;;;;;15.38;100.00;99729.34;5029998;28;20190;-76
2023/05/31 00:05:19;;;;;;;12.13;5.70;;;;;;;15.06;100.00;99731.72;4983568;28;20195;-76
2023/05/31 00:07:48;;;;;;;9.63;5.40;;;;;;;15.26;100.00;99732.94;4988721;28;20659;-76
2023/05/31 00:10:17;;;;;;;10.87;5.83;;;;;;;15.40;100.00;99727.41;4986480;28;20195;-76
2023/05/31 00:12:45;;;;;;;10.50;5.30;;;;;;;15.33;100.00;99728.81;4984440;28;20199;-77
2023/05/31 00:15:14;;;;;;;9.33;5.40;;;;;;;15.31;100.00;99724.56;4981638;28;20223;-77
2023/05/31 00:17:42;;;;;;;12.03;5.50;;;;;;;15.25;100.00;99720.56;4988542;28;20198;-77
2023/05/31 00:20:13;;;;;;;10.93;5.60;;;;;;;15.29;100.00;99726.50;4987524;28;20202;-77
2023/05/31 00:22:42;;;;;;;11.47;5.63;;;;;;;15.37;100.00;99726.78;4991220;28;20201;-76
2023/05/31 00:25:10;;;;;;;10.43;5.57;;;;;;;15.16;100.00;99729.22;5026316;28;20240;-77
2023/05/31 00:27:40;;;;;;;9.40;5.40;;;;;;;15.12;100.00;99735.75;5024574;28;20200;-77
2023/05/31 00:30:09;;;;;;;11.13;5.83;;;;;;;15.25;100.00;99738.34;5026943;28;20206;-76
2023/05/31 00:32:38;;;;;;;12.33;5.67;;;;;;;15.43;100.00;99729.81;5022751;28;20233;-76
2023/05/31 00:35:07;;;;;;;11.83;5.73;;;;;;;15.41;100.00;99733.59;5023856;28;20292;-77
2023/05/31 00:37:37;;;;;;;10.00;5.80;;;;;;;15.45;100.00;99738.59;5025660;28;20357;-76
2023/05/31 00:40:07;;;;;;;9.53;5.47;;;;;;;15.49;100.00;99731.19;5027237;28;20240;-77
2023/05/31 00:42:36;;;;;;;8.30;5.43;;;;;;;15.13;100.00;99737.44;4964340;28;20383;-77
2023/05/31 00:45:07;;;;;;;11.37;5.47;;;;;;;15.23;100.00;99742.97;4964668;28;20212;-77
2023/05/31 00:47:37;;;;;;;10.93;5.83;;;;;;;15.17;100.00;99742.47;4969052;28;20199;-77
2023/05/31 00:50:07;;;;;;;8.20;5.97;;;;;;;15.33;100.00;99746.66;4916825;28;20239;-76
2023/05/31 00:52:36;;;;;;;9.20;5.50;;;;;;;15.19;100.00;99742.34;4966871;28;20214;-76
2023/05/31 00:55:05;;;;;;;11.20;6.07;;;;;;;14.98;100.00;99743.91;4962432;28;20228;-77
2023/05/31 00:57:34;;;;;;;11.67;5.70;;;;;;;14.93;100.00;99746.06;4968792;28;20300;-76
2023/05/31 01:00:04;;;;;;;10.07;6.13;;;;;;;15.08;100.00;99747.63;4965288;28;20199;-76
2023/05/31 01:02:34;;;;;;;9.80;5.67;;;;;;;14.99;100.00;99740.28;4965684;28;20196;-77
2023/05/31 01:05:03;;;;;;;11.77;6.27;;;;;;;14.91;100.00;99746.16;4964098;28;20279;-77
2023/05/31 01:07:32;;;;;;;11.97;5.87;;;;;;;15.05;100.00;99740.66;4968613;28;20200;-76
2023/05/31 01:10:01;;;;;;;12.50;6.17;;;;;;;14.96;100.00;99753.81;4965553;28;20192;-76
2023/05/31 01:12:37;;;;;;;9.77;6.60;;;;;;;15.12;100.00;99741.06;4971093;28;20200;-77
2023/05/31 01:15:12;;;;;;;10.30;6.03;;;;;;;14.98;100.00;99739.44;5021474;28;20229;-76
2023/05/31 01:17:48;;;;;;;14.60;6.17;;;;;;;15.04;100.00;99743.44;4987852;28;20346;-76
2023/05/31 01:20:21;;;;;;;11.23;6.30;;;;;;;14.83;100.00;99749.38;4984059;28;20190;-76
2023/05/31 01:23:04;;;;;;;8.83;5.80;;;;;;;14.68;100.00;99747.84;4981287;28;20199;-77
2023/05/31 01:25:47;;;;;;;13.27;5.90;;;;;;;14.57;100.00;99743.28;4986496;28;20281;-76
2023/05/31 01:28:18;;;;;;;12.73;6.63;;;;;;;14.71;100.00;99749.41;4986707;28;20206;-77
2023/05/31 01:30:50;;;;;;;12.13;6.77;;;;;;;14.31;100.00;99746.88;4987630;28;20207;-76
2023/05/31 01:33:19;;;;;;;10.90;5.83;;;;;;;14.37;100.00;99738.44;4989918;28;20209;-76
2023/05/31 01:35:48;;;;;;;11.07;6.50;;;;;;;14.37;100.00;99737.59;4987163;28;20229;-76
2023/05/31 01:38:17;;;;;;;11.23;6.07;;;;;;;14.53;100.00;99744.44;4986300;28;20187;-77
2023/05/31 01:40:45;;;;;;;13.97;6.53;;;;;;;14.59;100.00;99745.81;4984613;28;20198;-76
2023/05/31 01:43:14;;;;;;;8.97;6.23;;;;;;;14.83;100.00;99730.72;4986313;28;20214;-77
2023/05/31 01:45:45;;;;;;;14.13;6.40;;;;;;;14.42;100.00;99740.78;4989491;28;20293;-76
2023/05/31 01:48:14;;;;;;;9.73;6.40;;;;;;;14.44;100.00;99739.72;4996349;28;20209;-76
2023/05/31 01:50:45;;;;;;;14.47;6.33;;;;;;;14.55;100.00;99738.97;5027267;28;20220;-77
2023/05/31 01:53:13;;;;;;;10.90;6.30;;;;;;;14.56;100.00;99733.53;5025223;28;20224;-77
2023/05/31 01:55:43;;;;;;;10.63;7.47;;;;;;;14.59;100.00;99738.69;5023686;28;20226;-76
2023/05/31 01:58:12;;;;;;;12.97;6.63;;;;;;;14.45;100.00;99733.44;5026677;28;20225;-76
2023/05/31 02:00:42;;;;;;;10.40;6.13;;;;;;;14.69;100.00;99730.03;5031153;28;20198;-76
2023/05/31 02:03:12;;;;;;;14.30;6.03;;;;;;;14.72;100.00;99729.78;5033527;28;20198;-76
2023/05/31 02:05:55;;;;;;;12.03;6.43;;;;;;;14.70;100.00;99729.06;5029410;28;20679;-77
2023/05/31 02:08:24;;;;;;;11.13;5.73;;;;;;;14.69;100.00;99730.88;5029411;28;20201;-76
2023/05/31 02:10:53;;;;;;;9.13;6.07;;;;;;;14.49;100.00;99726.97;5034691;28;20202;-76
2023/05/31 02:13:26;;;;;;;11.20;6.60;;;;;;;14.67;100.00;99735.47;5031544;28;20202;-77
2023/05/31 02:15:55;;;;;;;9.90;5.73;;;;;;;14.67;100.00;99726.59;5031729;28;20218;-77
2023/05/31 02:18:27;;;;;;;15.73;6.87;;;;;;;14.56;100.00;99733.53;5033299;28;20198;-77
2023/05/31 02:20:56;;;;;;;9.57;6.37;;;;;;;14.27;100.00;99727.56;5031528;28;20211;-76
2023/05/31 02:23:25;;;;;;;10.73;5.90;;;;;;;14.09;100.00;99728.00;5024635;28;20197;-76
2023/05/31 02:25:55;;;;;;;13.90;6.57;;;;;;;14.11;100.00;99728.78;5026845;28;20230;-76
2023/05/31 02:28:23;;;;;;;12.53;6.97;;;;;;;14.15;100.00;99732.91;5026483;28;20202;-76
2023/05/31 02:30:55;;;;;;;11.20;6.50;;;;;;;14.10;100.00;99733.25;5024899;28;20201;-76
2023/05/31 02:33:25;;;;;;;9.80;6.50;;;;;;;14.06;100.00;99734.41;5027226;28;20209;-76
2023/05/31 02:35:56;;;;;;;12.37;6.80;;;;;;;13.85;100.00;99739.38;5027082;28;20284;-76
2023/05/31 02:38:25;;;;;;;13.67;6.80;;;;;;;13.75;100.00;99735.66;5030358;28;20653;-77
2023/05/31 02:40:53;;;;;;;13.60;6.80;;;;;;;13.91;100.00;99738.97;5022535;28;20198;-77
2023/05/31 02:43:22;;;;;;;10.00;6.37;;;;;;;13.77;100.00;99740.88;5026244;28;20192;-76
2023/05/31 02:45:51;;;;;;;11.30;6.37;;;;;;;13.66;100.00;99737.13;4980926;28;20190;-76
2023/05/31 02:48:19;;;;;;;12.37;6.77;;;;;;;13.55;100.00;99741.47;5025314;28;20260;-77
2023/05/31 02:50:49;;;;;;;12.60;6.63;;;;;;;13.68;100.00;99737.00;5022411;28;20213;-77
2023/05/31 02:53:18;;;;;;;13.37;6.47;;;;;;;13.62;100.00;99732.13;5027816;28;20625;-76
2023/05/31 02:55:47;;;;;;;12.43;6.53;;;;;;;13.61;100.00;99735.75;5033796;28;20251;-76
2023/05/31 02:58:16;;;;;;;12.40;6.63;;;;;;;13.63;100.00;99736.50;5027101;28;20202;-77
2023/05/31 03:00:45;;;;;;;10.13;6.00;;;;;;;13.55;100.00;99738.81;5030743;28;20284;-76
2023/05/31 03:03:18;;;;;;;15.23;6.63;;;;;;;13.57;100.00;99735.06;5028766;28;20225;-77
2023/05/31 03:05:48;;;;;;;10.37;6.63;;;;;;;13.48;100.00;99745.47;5031477;28;20342;-77
2023/05/31 03:08:17;;;;;;;12.43;6.77;;;;;;;13.55;100.00;99737.00;5025656;28;20197;-76
2023/05/31 03:10:45;;;;;;;11.83;6.47;;;;;;;13.49;100.00;99741.88;4991954;28;20823;-76
2023/05/31 03:13:14;;;;;;;11.30;6.47;;;;;;;13.69;100.00;99749.38;4985500;28;20332;-76
2023/05/31 03:15:42;;;;;;;12.53;6.63;;;;;;;13.68;100.00;99742.34;4981821;28;20225;-76
2023/05/31 03:18:13;;;;;;;8.80;5.90;;;;;;;13.81;100.00;99742.38;4978932;28;20257;-76
2023/05/31 03:20:42;;;;;;;10.17;5.80;;;;;;;13.68;100.00;99747.66;4989694;28;20206;-77
2023/05/31 03:23:12;;;;;;;11.33;6.63;;;;;;;13.46;100.00;99754.44;4985819;28;20195;-76
2023/05/31 03:25:41;;;;;;;10.60;6.77;;;;;;;13.68;100.00;99745.84;4985710;28;20235;-76
2023/05/31 03:28:11;;;;;;;12.73;7.17;;;;;;;13.68;100.00;99745.00;4996407;28;20193;-76
2023/05/31 03:30:39;;;;;;;10.77;6.53;;;;;;;13.65;100.00;99745.22;5022406;28;20216;-76
2023/05/31 03:33:10;;;;;;;8.70;5.97;;;;;;;13.64;100.00;99738.19;5028808;28;20255;-77
2023/05/31 03:35:38;;;;;;;11.60;6.80;;;;;;;13.46;100.00;99741.13;5029165;28;20213;-77
2023/05/31 03:38:07;;;;;;;13.33;6.60;;;;;;;13.47;100.00;99736.66;5023725;28;20255;-77
2023/05/31 03:40:37;;;;;;;13.23;6.20;;;;;;;13.56;100.00;99748.50;5026906;28;20397;-76
2023/05/31 03:43:05;;;;;;;12.47;6.70;;;;;;;13.51;100.00;99747.94;5026262;28;20204;-77
2023/05/31 03:45:35;;;;;;;9.13;6.30;;;;;;;13.58;100.00;99747.44;5023346;28;20202;-76
2023/05/31 03:48:03;;;;;;;9.80;6.30;;;;;;;13.38;100.00;99745.25;5021741;28;20221;-77
2023/05/31 03:50:32;;;;;;;11.10;6.40;;;;;;;13.24;100.00;99746.16;5027425;28;20247;-76
2023/05/31 03:53:00;;;;;;;12.90;6.43;;;;;;;13.20;100.00;99741.13;5021651;28;20233;-76
2023/05/31 03:55:30;;;;;;;14.00;6.53;;;;;;;13.28;100.00;99757.44;5026382;28;20198;-76
2023/05/31 03:58:01;;;;;;;12.30;6.70;;;;;;;13.27;100.00;99747.75;5026226;28;20217;-76
2023/05/31 04:00:29;;;;;;;11.63;6.30;;;;;;;13.18;100.00;99755.34;5029002;28;20197;-76
2023/05/31 04:02:57;;;;;;;11.07;6.00;;;;;;;13.26;100.00;99756.69;5021670;28;20197;-76
2023/05/31 04:05:32;;;;;;;13.50;6.37;;;;;;;13.48;100.00;99761.44;5029181;28;20224;-77
2023/05/31 04:08:02;;;;;;;10.80;6.27;;;;;;;13.57;100.00;99750.19;5026056;28;20257;-76
2023/05/31 04:10:30;;;;;;;12.40;5.80;;;;;;;13.59;100.00;99751.78;4966399;28;20698;-77
2023/05/31 04:13:00;;;;;;;11.30;6.00;;;;;;;13.78;100.00;99751.41;4967636;28;20207;-77
2023/05/31 04:15:29;;;;;;;13.23;6.13;;;;;;;13.84;100.00;99761.66;4971701;28;20231;-77
2023/05/31 04:17:57;;;;;;;14.03;5.77;;;;;;;13.97;100.00;99753.69;4959292;28;20314;-77
2023/05/31 04:20:26;;;;;;;11.77;5.43;;;;;;;13.97;100.00;99761.66;4969098;28;20196;-76
2023/05/31 04:22:55;;;;;;;10.43;5.70;;;;;;;14.00;100.00;99753.47;4967972;28;20196;-76
2023/05/31 04:25:23;;;;;;;12.20;5.67;;;;;;;14.02;100.00;99762.22;4962289;28;20235;-77
2023/05/31 04:27:52;;;;;;;8.83;5.90;;;;;;;14.14;100.00;99757.84;4969140;28;20316;-77
2023/05/31 04:30:23;;;;;;;8.93;5.57;;;;;;;14.09;100.00;99755.53;4966611;28;20219;-77
2023/05/31 04:32:52;;;;;;;10.20;5.07;;;;;;;14.03;100.00;99756.78;4964934;28;20695;-77
2023/05/31 04:35:22;;;;;;;10.87;5.67;;;;;;;14.04;100.00;99750.50;4963634;28;20203;-77
2023/05/31 04:37:54;;;;;;;11.87;5.47;;;;;;;14.21;100.00;99759.13;4963575;28;20583;-77
2023/05/31 04:40:23;;;;;;;9.43;5.47;;;;;;;14.15;100.00;99757.75;4962194;28;20200;-77
2023/05/31 04:42:52;;;;;;;9.53;5.53;;;;;;;14.12;100.00;99759.78;5026797;28;20200;-77
2023/05/31 04:45:21;;;;;;;8.23;5.10;;;;;;;14.08;100.00;99764.44;5029438;28;20281;-77
2023/05/31 04:47:50;;;;;;;12.07;5.40;;;;;;;14.13;100.00;99764.13;5028707;28;20285;-77
2023/05/31 04:50:19;;;;;;;11.17;5.23;;;;;;;14.07;100.00;99757.41;5026611;28;20218;-77
2023/05/31 04:52:47;;;;;;;10.17;5.57;;;;;;;14.20;100.00;99758.28;5022311;28;20232;-77
2023/05/31 04:55:16;;;;;;;9.43;5.00;;;;;;;14.23;100.00;99759.88;5029466;28;20277;-77
2023/05/31 04:57:44;;;;;;;9.70;4.77;;;;;;;14.33;100.00;99763.59;5023495;28;20222;-77
2023/05/31 05:00:16;;;;;;;11.07;5.17;;;;;;;14.23;100.00;99757.22;5026541;28;20198;-77
2023/05/31 05:02:46;;;;;;;10.27;5.47;;;;;;;14.52;100.00;99763.22;5025932;28;20201;-77
2023/05/31 05:05:16;;;;;;;8.57;5.20;;;;;;;14.41;100.00;99773.75;5031461;28;20284;-77
2023/05/31 05:07:44;;;;;;;6.57;5.03;;;;;;;14.73;100.00;99772.34;5030343;28;20272;-76
2023/05/31 05:10:12;;;;;;;9.73;4.70;;;;;;;14.51;100.00;99770.34;5032752;28;20201;-77
2023/05/31 05:12:41;;;;;;;8.40;4.87;;;;;;;14.60;100.00;99768.84;5025998;28;20208;-77
2023/05/31 05:15:09;;;;;;;8.33;4.80;;;;;;;14.58;100.00;99770.78;5025559;28;20201;-77
2023/05/31 05:17:39;;;;;;;7.30;4.57;;;;;;;14.44;100.00;99765.53;5025378;28;20225;-77
2023/05/31 05:20:11;;;;;;;8.23;4.30;;;;;;;14.72;100.00;99765.31;5025369;28;20293;-77
2023/05/31 05:22:40;;;;;;;6.47;4.20;;;;;;;14.69;100.00;99775.34;4998878;28;20229;-77
2023/05/31 05:25:10;;;;;;;9.40;4.63;;;;;;;14.76;100.00;99773.94;5031620;28;20221;-77
2023/05/31 05:27:39;;;;;;;10.00;4.30;;;;;;;14.75;100.00;99773.06;5027758;28;20197;-77
2023/05/31 05:30:08;;;;;;;9.00;4.07;;;;;;;15.00;100.00;99780.19;5027978;28;20201;-77
2023/05/31 05:32:37;;;;;;;10.23;4.37;;;;;;;15.02;100.00;99780.06;5013444;28;20198;-77
2023/05/31 05:35:06;;;;;;;8.93;4.00;;;;;;;15.08;100.00;99779.63;5011088;28;20198;-77
2023/05/31 05:37:37;;;;;;;7.27;4.20;;;;;;;15.28;100.00;99781.69;5008102;28;20243;-77
2023/05/31 05:40:08;;;;;;;9.33;4.53;;;;;;;15.24;100.00;99788.22;5009595;28;20198;-77
2023/05/31 05:42:37;;;;;;;9.97;4.33;;;;;;;15.13;100.00;99790.81;5010917;28;20305;-77
2023/05/31 05:45:07;;;;;;;11.90;3.90;;;;;;;15.25;100.00;99787.28;5013331;28;20206;-77
2023/05/31 05:47:36;;;;;;;8.37;3.90;;;;;;;15.57;100.00;99792.91;4954758;29;20200;-77
2023/05/31 05:50:06;;;;;;;7.67;3.80;;;;;;;15.63;100.00;99780.91;4949780;29;20204;-77
2023/05/31 05:52:38;;;;;;;6.47;4.27;;;;;;;15.74;100.00;99786.34;4929405;29;20216;-77
2023/05/31 05:55:08;;;;;;;6.37;4.07;;;;;;;15.62;100.00;99781.88;4933226;29;20276;-77
2023/05/31 05:57:37;;;;;;;7.30;4.40;;;;;;;15.59;100.00;99780.28;4929320;29;20258;-77
2023/05/31 06:00:10;;;;;;;9.23;4.43;;;;;;;15.70;100.00;99774.16;4928921;29;20211;-76
2023/05/31 06:02:40;;;;;;;8.43;4.10;;;;;;;15.80;100.00;99777.84;4932877;29;20668;-77
2023/05/31 06:05:09;;;;;;;7.87;3.67;;;;;;;15.74;100.00;99783.66;4935165;28;20204;-77
2023/05/31 06:07:40;;;;;;;11.67;3.70;;;;;;;15.97;100.00;99779.22;4973752;28;20651;-77
2023/05/31 06:10:09;;;;;;;8.33;3.80;;;;;;;16.03;100.00;99782.31;4970277;28;20307;-77
2023/05/31 06:12:38;;;;;;;9.37;3.80;;;;;;;16.03;100.00;99776.94;4970764;28;20667;-77
2023/05/31 06:15:08;;;;;;;6.40;3.57;;;;;;;15.99;100.00;99782.63;4968414;28;20240;-77
2023/05/31 06:17:37;;;;;;;8.63;3.97;;;;;;;16.13;100.00;99781.59;5007161;28;20206;-77
2023/05/31 06:20:10;;;;;;;10.33;3.77;;;;;;;16.27;100.00;99773.34;5025093;28;20202;-76
2023/05/31 06:22:40;;;;;;;6.30;3.70;;;;;;;16.47;100.00;99777.13;5027155;28;20189;-77
2023/05/31 06:25:09;;;;;;;5.40;3.30;;;;;;;16.67;100.00;99781.75;5030695;28;20225;-77
2023/05/31 06:27:37;;;;;;;9.50;3.73;;;;;;;16.60;100.00;99769.88;5030030;28;20197;-77
2023/05/31 06:30:06;;;;;;;8.57;3.30;;;;;;;16.84;100.00;99775.09;5028691;28;20213;-78
2023/05/31 06:32:35;;;;;;;6.33;3.30;;;;;;;16.89;100.00;99770.25;5025886;28;20201;-78
2023/05/31 06:35:04;;;;;;;8.57;3.20;;;;;;;17.10;100.00;99757.81;5025940;28;20229;-77
2023/05/31 06:37:32;;;;;;;6.70;3.53;;;;;;;17.27;100.00;99764.44;5029563;28;20216;-77
2023/05/31 06:40:03;;;;;;;5.60;3.13;;;;;;;17.41;100.00;99763.31;5027259;28;20245;-77
2023/05/31 06:42:31;;;;;;;10.40;3.37;;;;;;;17.56;100.00;99770.06;5026152;28;20225;-77
2023/05/31 06:44:59;;;;;;;6.97;3.50;;;;;;;17.40;100.00;99756.25;5031329;28;20205;-77
2023/05/31 06:47:29;;;;;;;9.43;3.13;;;;;;;17.52;100.00;99751.72;5026692;28;20197;-78
2023/05/31 06:49:58;;;;;;;8.33;2.97;;;;;;;17.46;100.00;99751.22;5025304;28;20205;-77
2023/05/31 06:52:26;;;;;;;8.23;2.80;;;;;;;17.59;100.00;99758.25;5025986;28;20197;-77
2023/05/31 06:54:54;;;;;;;6.37;3.27;;;;;;;17.68;100.00;99754.81;5024176;28;20204;-77
2023/05/31 06:57:24;;;;;;;6.30;3.37;;;;;;;17.80;100.00;99751.13;5031103;28;20656;-77
2023/05/31 06:59:52;;;;;;;7.63;3.50;;;;;;;17.93;100.00;99745.56;5025932;28;20217;-77
2023/05/31 07:02:21;;;;;;;5.63;2.80;;;;;;;17.89;100.00;99742.31;5030836;28;20214;-77
2023/05/31 07:04:49;;;;;;;6.47;2.83;;;;;;;17.90;100.00;99744.00;5023667;28;20197;-77
2023/05/31 07:07:17;;;;;;;8.70;3.37;;;;;;;18.02;100.00;99747.47;5030723;28;20216;-78
2023/05/31 07:09:45;;;;;;;6.97;2.97;;;;;;;18.17;100.00;99758.72;5024939;28;20206;-77
2023/05/31 07:12:14;;;;;;;7.43;2.83;;;;;;;18.31;100.00;99755.69;5029941;28;20233;-77
2023/05/31 07:14:44;;;;;;;7.13;2.90;;;;;;;18.52;98.63;99752.97;5028363;28;20657;-77
2023/05/31 07:17:12;;;;;;;6.03;2.60;;;;;;;18.65;94.23;99756.31;5024457;28;20263;-77
2023/05/31 07:19:47;;;;;;;6.37;3.00;;;;;;;18.56;94.88;99755.25;5027862;28;20692;-77
2023/05/31 07:22:17;;;;;;;7.70;3.00;;;;;;;18.82;93.41;99758.38;5024082;28;20251;-77
2023/05/31 07:24:46;;;;;;;7.30;2.50;;;;;;;18.83;88.25;99759.22;5021106;28;20202;-78
2023/05/31 07:27:14;;;;;;;5.63;3.30;;;;;;;19.02;87.61;99751.22;5028654;28;20198;-78
2023/05/31 07:29:44;;;;;;;5.50;2.67;;;;;;;19.14;89.34;99749.28;5026502;28;20212;-78
2023/05/31 07:32:12;;;;;;;7.07;2.57;;;;;;;19.37;83.82;99748.03;5030412;28;20190;-77
2023/05/31 07:34:41;;;;;;;6.70;3.00;;;;;;;19.32;80.39;99752.97;5022055;28;20661;-78
2023/05/31 07:37:29;;;;;;;5.70;2.67;;;;;;;19.31;77.88;99750.44;5033338;28;20228;-77
2023/05/31 07:39:58;;;;;;;5.70;2.70;;;;;;;19.56;77.07;99747.22;5029413;28;20221;-78
2023/05/31 07:42:26;;;;;;;5.50;2.40;;;;;;;19.80;74.15;99737.91;5029309;28;20198;-78
2023/05/31 07:44:56;;;;;;;5.75;2.97;;;;;;;19.78;74.71;99742.53;5024858;28;20205;-78
2023/05/31 07:47:25;;;;;;;5.97;2.53;;;;;;;19.82;74.92;99735.91;5022365;28;20719;-77
2023/05/31 07:49:53;;;;;;;6.60;2.67;;;;;;;20.09;72.03;99746.78;5024328;28;20197;-78
2023/05/31 07:52:21;;;;;;;4.68;2.33;;;;;;;19.97;74.31;99745.22;5030011;28;20244;-77
2023/05/31 07:54:50;;;;;;;10.13;2.90;;;;;;;20.02;73.25;99735.72;5025295;28;20223;-77
2023/05/31 07:57:18;;;;;;;4.60;2.43;;;;;;;20.09;69.20;99730.63;5027358;28;20225;-78
2023/05/31 07:59:48;;;;;;;4.50;2.22;;;;;;;20.30;68.63;99738.50;5024469;28;20220;-77
2023/05/31 08:02:18;;;;;;;4.80;2.30;;;;;;;20.39;67.79;99736.78;5024923;28;20209;-77
2023/05/31 08:04:46;;;;;;;7.27;2.50;;;;;;;20.37;71.94;99738.78;5031356;28;20216;-78
2023/05/31 08:07:15;;;;;;;4.20;2.42;;;;;;;20.48;68.89;99735.94;5030050;28;20244;-78
2023/05/31 08:09:44;;;;;;;5.20;2.67;;;;;;;20.72;68.38;99724.63;5027443;28;20209;-78
2023/05/31 08:12:12;;;;;;;5.75;2.30;;;;;;;20.73;69.92;99724.47;5027538;28;20288;-78
2023/05/31 08:14:40;;;;;;;6.32;2.30;;;;;;;20.66;69.59;99719.88;5028973;28;20208;-78
2023/05/31 08:17:09;;;;;;;5.30;2.55;;;;;;;20.68;65.43;99715.16;5032770;28;20194;-78
2023/05/31 08:19:39;;;;;;;3.28;2.40;;;;;;;20.87;67.54;99717.75;5024865;28;20217;-78
2023/05/31 08:22:07;;;;;;;5.70;3.05;;;;;;;20.89;66.63;99717.59;5024524;28;20207;-77
2023/05/31 08:24:36;;;;;;;4.05;2.78;;;;;;;20.93;62.09;99722.53;5023913;28;20642;-78
2023/05/31 08:27:05;;;;;;;5.15;3.42;;;;;;;21.15;60.79;99718.59;5024545;28;20260;-77
2023/05/31 08:29:34;;;;;;;3.95;2.20;;;;;;;21.15;61.31;99716.75;5028533;28;20193;-78
2023/05/31 08:32:02;;;;;;;5.28;2.40;;;;;;;21.17;60.69;99713.03;5025613;28;20206;-78
2023/05/31 08:34:31;;;;;;;8.25;4.20;;;;;;;21.37;60.24;99714.63;5026628;28;20229;-78
2023/05/31 08:37:00;;;;;;;8.05;3.10;;;;;;;21.32;59.60;99720.47;5029699;28;20206;-77
2023/05/31 08:39:30;;;;;;;6.25;3.15;;;;;;;21.66;63.19;99709.84;5027043;28;20228;-77
2023/05/31 08:42:01;;;;;;;5.70;3.00;;;;;;;21.54;58.63;99713.78;5036439;28;20244;-78
2023/05/31 08:44:30;;;;;;;6.72;4.65;;;;;;;21.78;60.05;99707.75;5030961;28;20202;-77
2023/05/31 08:47:00;;;;;;;3.70;2.38;;;;;;;21.93;56.67;99713.44;5036515;28;20289;-78
2023/05/31 08:49:30;;;;;;;4.57;2.75;;;;;;;21.79;55.91;99700.50;4983720;28;20736;-78
2023/05/31 08:52:01;;;;;;;6.53;2.55;;;;;;;21.96;56.04;99711.25;5030380;28;20221;-78
2023/05/31 08:54:30;;;;;;;5.03;3.10;;;;;;;21.90;55.62;99714.56;5033389;28;20194;-78
2023/05/31 08:57:02;;;;;;;4.90;2.28;;;;;;;21.83;54.56;99710.00;5028314;28;20201;-78
2023/05/31 08:59:31;;;;;;;4.10;2.10;;;;;;;21.90;53.34;99709.19;5026827;28;20228;-78
2023/05/31 09:02:01;;;;;;;5.03;2.47;;;;;;;22.00;53.07;99704.56;5031978;28;20198;-78
2023/05/31 09:04:30;;;;;;;5.32;2.45;;;;;;;22.37;52.48;99698.06;5034772;28;20250;-78
2023/05/31 09:06:58;;;;;;;3.38;2.20;;;;;;;22.17;54.59;99696.59;4929751;29;20201;-78
2023/05/31 09:09:28;;;;;;;4.72;2.03;;;;;;;22.47;52.93;99698.78;4936505;29;20287;-78
2023/05/31 09:11:56;;;;;;;6.78;2.53;;;;;;;22.05;52.45;99703.22;4929484;29;20201;-78
2023/05/31 09:14:25;;;;;;;3.78;2.30;;;;;;;22.65;52.14;99697.84;4932859;29;20736;-78
2023/05/31 09:16:54;;;;;;;4.57;2.40;;;;;;;22.60;53.19;99692.94;4929930;29;20208;-78
2023/05/31 09:19:22;;;;;;;4.25;2.08;;;;;;;22.77;52.67;99696.53;4928278;29;20244;-78
2023/05/31 09:21:53;;;;;;;6.15;2.40;;;;;;;22.64;52.04;99697.00;4932571;29;20200;-78
2023/05/31 09:24:22;;;;;;;5.68;2.20;;;;;;;22.74;48.04;99689.63;4947445;28;20197;-78
2023/05/31 09:26:54;;;;;;;5.07;2.25;;;;;;;23.07;45.87;99681.66;5030174;28;20703;-78
2023/05/31 09:29:23;;;;;;;3.97;2.10;;;;;;;22.84;44.39;99681.41;5025743;28;20232;-78
2023/05/31 09:32:08;;;;;;;6.22;2.20;;;;;;;23.31;43.65;99676.28;5025730;28;20281;-77
2023/05/31 09:34:36;;;;;;;7.20;2.00;;;;;;;23.26;42.03;99686.78;5031582;28;20225;-78
2023/05/31 09:37:05;;;;;;;4.00;2.25;;;;;;;23.55;42.41;99672.78;5032947;28;20557;-78
2023/05/31 09:39:35;;;;;;;3.85;1.80;;;;;;;23.39;41.64;99662.78;5024283;28;20209;-78
2023/05/31 09:42:13;;;;;;;4.82;1.80;;;;;;;23.50;41.82;99667.00;5028850;28;20212;-78
2023/05/31 09:44:48;;;;;;;4.47;1.92;;;;;;;23.49;41.66;99661.78;5032722;28;20189;-77
2023/05/31 09:47:16;;;;;;;3.72;2.03;;;;;;;23.78;41.02;99662.13;5030697;28;20198;-78
2023/05/31 09:49:48;;;;;;;4.45;1.92;;;;;;;23.80;40.65;99670.91;5031226;28;20205;-78
2023/05/31 09:52:16;;;;;;;3.22;1.85;;;;;;;23.82;40.18;99657.22;5031172;28;20197;-78
2023/05/31 09:54:44;;;;;;;4.70;1.98;;;;;;;23.99;38.72;99658.88;5029627;28;20678;-78
2023/05/31 09:57:39;;;;;;;5.43;2.05;;;;;;;24.20;37.89;99652.91;5028645;28;20201;-78
2023/05/31 10:00:14;;;;;;;3.65;1.85;;;;;;;24.24;37.84;99648.84;5033215;28;20307;-78
2023/05/31 10:02:43;;;;;;;3.60;1.75;;;;;;;24.44;36.69;99647.47;5031675;28;20315;-78
2023/05/31 10:05:13;;;;;;;2.95;1.70;;;;;;;24.23;37.40;99639.88;5031057;28;20194;-78
2023/05/31 10:07:42;;;;;;;3.72;2.00;;;;;;;24.60;37.78;99637.56;5030844;28;20205;-78
2023/05/31 10:10:11;;;;;;;6.82;2.13;;;;;;;24.31;37.84;99641.72;5030160;28;20252;-78
2023/05/31 10:12:46;;;;;;;3.92;2.20;;;;;;;24.32;37.72;99642.56;5029691;28;20212;-78
2023/05/31 10:15:18;;;;;;;3.20;2.10;;;;;;;24.34;36.83;99640.56;5031560;28;20190;-78
2023/05/31 10:17:54;;;;;;;4.10;2.50;;;;;;;24.38;38.08;99642.72;5027898;28;20198;-78
2023/05/31 10:20:25;;;;;;;4.32;1.80;;;;;;;24.62;38.51;99628.25;5025352;28;20220;-78
2023/05/31 10:22:58;;;;;;;5.30;2.10;;;;;;;24.94;37.30;99637.22;5031162;28;20216;-78
2023/05/31 10:25:31;;;;;;;3.83;1.88;;;;;;;25.41;36.87;99628.94;5029094;28;20225;-78
2023/05/31 10:28:08;;;;;;;5.35;2.10;;;;;;;25.48;36.47;99629.91;5028556;28;20201;-78
2023/05/31 10:30:40;;;;;;;5.97;2.33;;;;;;;25.32;36.45;99625.44;5026770;28;20194;-78
2023/05/31 10:33:12;;;;;;;3.78;1.80;;;;;;;25.44;36.38;99619.59;5030392;28;20279;-78
2023/05/31 10:35:42;;;;;;;3.85;1.95;;;;;;;25.36;37.28;99615.06;5031756;28;20243;-77
2023/05/31 10:38:10;;;;;;;6.05;1.80;;;;;;;25.45;37.87;99624.84;5031406;28;20193;-78
2023/05/31 10:40:46;;;;;;;2.65;1.60;;;;;;;25.49;36.77;99615.31;5027330;28;20225;-78
2023/05/31 10:43:21;;;;;;;3.50;2.20;;;;;;;25.75;37.27;99605.94;5028743;28;20204;-78
2023/05/31 10:45:55;;;;;;;3.45;1.98;;;;;;;25.67;36.85;99615.84;5028624;28;20189;-78
2023/05/31 10:48:30;;;;;;;4.68;1.90;;;;;;;25.78;36.65;99603.72;5030377;28;20189;-78
2023/05/31 10:51:00;;;;;;;5.53;2.03;;;;;;;26.00;35.30;99603.81;5029888;28;20197;-78
2023/05/31 10:53:30;;;;;;;4.75;1.73;;;;;;;25.89;36.47;99603.25;5027788;28;20648;-78
2023/05/31 10:56:04;;;;;;;2.63;2.05;;;;;;;26.11;36.57;99606.91;5029667;28;20208;-78
2023/05/31 10:58:38;;;;;;;3.65;2.00;;;;;;;26.62;35.64;99596.09;5028847;28;20287;-78
2023/05/31 11:01:13;;;;;;;4.55;2.15;;;;;;;26.01;37.29;99606.34;5026237;28;20213;-78
2023/05/31 11:03:49;;;;;;;4.88;2.10;;;;;;;26.44;36.59;99592.94;5032775;28;20201;-79
2023/05/31 11:06:24;;;;;;;4.45;2.25;;;;;;;26.84;35.76;99588.00;4987353;28;20203;-78
2023/05/31 11:09:00;;;;;;;4.28;2.10;;;;;;;26.68;36.78;99578.22;4989840;28;20226;-78
2023/05/31 11:11:46;;;;;;;4.20;2.10;;;;;;;26.97;37.24;99583.53;4980743;28;20201;-78
2023/05/31 11:14:28;;;;;;;5.63;2.10;;;;;;;26.70;36.66;99587.84;4991749;28;20203;-78
2023/05/31 11:17:18;;;;;;;3.83;1.55;;;;;;;26.63;36.11;99586.06;4989834;28;20277;-78
2023/05/31 11:19:53;;;;;;;2.55;1.70;;;;;;;27.00;36.28;99588.59;4981332;28;20211;-78
2023/05/31 11:22:27;;;;;;;4.28;1.92;;;;;;;26.51;34.63;99592.00;4986924;28;20769;-78
2023/05/31 11:24:57;;;;;;;6.15;1.98;;;;;;;27.41;33.58;99590.69;4989308;28;20302;-78
2023/05/31 11:27:36;;;;;;;2.78;1.63;;;;;;;26.96;35.11;99583.75;4989607;28;20206;-78
2023/05/31 11:30:10;;;;;;;4.10;1.63;;;;;;;27.15;35.67;99579.56;4985437;28;20225;-78
2023/05/31 11:32:59;;;;;;;5.43;1.98;;;;;;;27.80;34.75;99573.03;4982408;28;20222;-78
2023/05/31 11:35:32;;;;;;;4.07;1.80;;;;;;;27.44;34.03;99573.13;4989087;28;20195;-78
2023/05/31 11:38:05;;;;;;;3.03;1.77;;;;;;;27.61;33.80;99575.38;5018404;28;20213;-78